Znamenskiy, Russia

1:06 AM MSK on March 02, 2015 (GMT +0300)
Pashkovsky | Change Station
CLOSE
Current Station
Airport
Location: Krasnodar,
Elevation: 112 ft
Nearby Weather Stations

Elev 112 ft 45.03 °N, 39.15 °E | Updated 36 minutes ago

Overcast
Overcast
39 °F
Feels Like 36 °F
N
4
Wind Variable Wind from WNW

Today
High -- | Low -- °F
--% Chance of Precip.
Yesterday
High -- | Low -- °F
Precip. -- in
7:00 AM 6:11 PM
Waxing Gibbous, 87% visible
Pressure 30.01 in
Visibility -9999.0 miles
Clouds Overcast 400 ft
Windchill 36 °F
Dew Point 39 °F
Humidity 100%
Rainfall 0.00 in
Snow Depth Not available.
UV 0 out of 12
Pollen Not available.
Air Quality Not available.
Flu Activity Not available.
METAR URKK 012130Z 30002MPS 3700 BR OVC004 04/04 Q1016 TEMPO 1000 RMK QBB130 OBST OBSC QFE759 SC060

More Conditions Fewer Conditions

Pressure 30.01 in
Visibility -9999.0 miles
Clouds Overcast 400 ft
Windchill 36 °F
Dew Point 39 °F
Humidity 100%
Rainfall 0.00 in
Snow Depth Not available.
UV 0 out of 12
Pollen Not available.
Air Quality Not available.
Flu Activity Not available.
METAR URKK 012130Z 30002MPS 3700 BR OVC004 04/04 Q1016 TEMPO 1000 RMK QBB130 OBST OBSC QFE759 SC060

More Conditions Fewer Conditions

10-Day Weather Forecast

Almanac

Astronomy

Mar. 02, 2015 Rise Set
Actual Time
Civil Twilight
Nautical Twilight
Astronomical Twilight
Moon
Length of Visible Light
Length of Day
Tomorrow will be .
, % of the Moon is Illuminated

Today's Extremes

Country Highs Country Lows

Community

WunderPhotos

Upload Photos

1,801,585 photos uploaded!

WunderBlogs® & News

Nearby

Air Quality

  Air Quality AQ Index Pollutant
Not available.

Snow Depth

Station Depth Elevation

Earthquake Activity

City Distance Mag. Time & Date
Minimum magnitude displayed is 2.5.

Coastal Water Temperatures

Place Temperature

Nearby Weather Stations